createdAt,value
2019-05-10T00:00:37.144Z,16.00
2019-05-10T00:01:37.132Z,16.00
2019-05-10T00:02:37.119Z,20.00
2019-05-10T00:03:37.111Z,28.00
2019-05-10T00:04:37.102Z,36.00
2019-05-10T00:05:37.489Z,40.00
2019-05-10T00:06:37.083Z,52.00
2019-05-10T00:07:37.068Z,60.00
2019-05-10T00:08:37.060Z,64.00
2019-05-10T00:09:37.048Z,80.00
2019-05-10T00:10:37.037Z,92.00
2019-05-10T00:11:37.076Z,104.00
2019-05-10T00:12:37.018Z,116.00
2019-05-10T00:13:37.006Z,136.00
2019-05-10T00:14:37.000Z,152.00
2019-05-10T00:15:36.989Z,180.00
2019-05-10T00:16:36.978Z,200.00
2019-05-10T00:17:37.017Z,228.00
2019-05-10T00:18:36.957Z,256.00
2019-05-10T00:19:36.943Z,288.00
2019-05-10T00:20:36.934Z,324.00
2019-05-10T00:21:36.925Z,360.00
2019-05-10T00:22:36.908Z,408.00
2019-05-10T00:23:37.052Z,448.00
2019-05-10T00:24:36.888Z,496.00
2019-05-10T00:25:36.881Z,544.00
2019-05-10T00:26:36.867Z,600.00
2019-05-10T00:27:36.862Z,660.00
2019-05-10T00:28:36.867Z,716.00
2019-05-10T00:29:36.924Z,780.00
2019-05-10T00:30:36.826Z,844.00
2019-05-10T00:31:36.817Z,920.00
2019-05-10T00:37:37.383Z,1524.00
2019-05-10T00:38:04.160Z,1652.00
2019-05-10T00:39:04.154Z,1792.00
2019-05-10T00:40:04.189Z,1944.00
2019-05-10T00:41:04.127Z,2096.00
2019-05-10T00:42:04.118Z,2240.00
2019-05-10T00:43:04.107Z,2392.00
2019-05-10T00:44:04.095Z,2468.00
2019-05-10T00:45:04.087Z,2772.00
2019-05-10T00:46:04.124Z,2984.00
2019-05-10T00:47:04.064Z,3188.00
2019-05-10T00:48:04.059Z,3368.00
2019-05-10T00:49:04.045Z,3568.00
2019-05-10T00:50:10.299Z,3820.00
2019-05-10T00:51:04.175Z,4080.00
2019-05-10T00:52:04.012Z,4320.00
2019-05-10T00:53:04.003Z,4536.00
2019-05-10T00:54:03.990Z,4744.00
2019-05-10T00:55:17.775Z,4996.00
2019-05-10T00:56:31.869Z,5388.00
2019-05-10T00:57:28.824Z,5640.00
2019-05-10T00:58:28.813Z,5804.00
2019-05-10T00:59:28.800Z,6052.00
2019-05-10T01:00:28.797Z,6360.00
2019-05-10T01:01:28.835Z,6648.00
2019-05-10T01:02:28.769Z,6944.00
2019-05-10T01:03:28.759Z,7216.00
2019-05-10T01:04:28.751Z,7532.00
2019-05-10T01:05:28.735Z,7872.00
2019-05-10T01:06:28.724Z,8076.00
2019-05-10T01:07:28.864Z,8240.00
2019-05-10T01:08:28.704Z,8672.00
2019-05-10T01:09:28.696Z,8956.00
2019-05-10T01:10:28.682Z,9280.00
2019-05-10T01:11:28.669Z,9612.00
2019-05-10T01:12:28.661Z,9956.00
2019-05-10T01:14:32.738Z,10672.00
2019-05-10T01:15:28.629Z,10908.00
2019-05-10T01:16:28.617Z,11364.00
2019-05-10T01:17:28.607Z,11724.00
2019-05-10T01:18:28.596Z,12068.00
2019-05-10T01:19:28.587Z,13344.00
2019-05-10T01:20:28.624Z,16744.00
2019-05-10T01:21:28.566Z,20192.00
2019-05-10T01:22:28.562Z,21184.00
2019-05-10T01:23:28.544Z,20768.00
2019-05-10T01:24:28.534Z,22464.00
2019-05-10T01:25:35.366Z,28576.00
2019-05-10T01:26:29.656Z,35360.00
2019-05-10T01:27:28.502Z,39328.00
2019-05-10T01:28:28.489Z,43904.00
2019-05-10T01:29:28.478Z,45344.00
2019-05-10T01:30:28.468Z,38048.00
2019-05-10T01:31:28.458Z,36288.00
2019-05-10T01:32:28.497Z,45280.00
2019-05-10T01:33:41.174Z,51808.00
2019-05-10T01:34:28.426Z,49376.00
2019-05-10T01:35:28.417Z,43936.00
2019-05-10T01:36:28.406Z,41216.00
2019-05-10T01:37:28.546Z,41568.00
2019-05-10T01:38:28.384Z,42720.00
2019-05-10T01:39:28.375Z,42208.00
2019-05-10T01:40:28.367Z,39808.00
2019-05-10T01:41:28.353Z,37024.00
2019-05-10T01:42:28.342Z,36992.00
2019-05-10T01:43:28.385Z,40096.00
2019-05-10T01:44:28.320Z,41664.00
2019-05-10T01:45:28.315Z,43904.00
2019-05-10T01:46:28.303Z,46752.00
2019-05-10T01:47:28.291Z,47584.00
2019-05-10T01:48:34.550Z,46816.00
2019-05-10T01:49:28.324Z,45664.00
2019-05-10T01:50:28.262Z,46944.00
2019-05-10T01:51:28.251Z,51552.00
2019-05-10T01:52:28.237Z,54912.00
2019-05-10T01:53:40.965Z,53760.00
2019-05-10T01:58:28.231Z,50976.00
2019-05-10T01:59:28.165Z,51328.00
2019-05-10T02:00:28.155Z,47968.00
2019-05-10T02:01:28.150Z,46368.00
2019-05-10T02:02:28.134Z,48800.00
2019-05-10T02:03:28.274Z,55168.00
2019-05-10T02:04:28.119Z,60768.00
2019-05-10T02:05:28.109Z,64224.00
2019-05-10T02:06:40.828Z,60544.00
2019-05-10T02:07:28.085Z,54912.00
2019-05-10T02:08:28.075Z,52480.00
2019-05-10T02:09:28.115Z,58400.00
2019-05-10T02:10:28.054Z,63840.00
2019-05-10T02:11:28.046Z,59168.00
2019-05-10T02:12:28.039Z,49184.00
2019-05-10T02:13:28.026Z,44256.00
2019-05-10T02:14:28.016Z,43488.00
2019-05-10T02:16:28.045Z,49056.00
2019-05-10T02:17:27.985Z,50688.00
2019-05-10T02:18:27.973Z,53568.00
2019-05-10T02:19:27.965Z,52832.00
2019-05-10T02:20:27.954Z,50592.00
2019-05-10T02:21:28.091Z,50784.00
2019-05-10T02:22:27.932Z,49536.00
2019-05-10T02:23:27.924Z,48256.00
2019-05-10T02:24:27.917Z,50592.00
2019-05-10T02:25:27.901Z,50336.00
2019-05-10T02:27:27.929Z,45856.00
2019-05-10T02:28:27.871Z,45088.00
2019-05-10T02:29:27.861Z,43936.00
2019-05-10T02:33:45.312Z,45952.00
2019-05-10T02:34:26.099Z,46144.00
2019-05-10T02:35:26.090Z,46752.00
2019-05-10T02:36:26.085Z,45664.00
2019-05-10T02:37:26.066Z,45504.00
2019-05-10T02:38:26.205Z,45984.00
2019-05-10T02:39:26.053Z,44448.00
2019-05-10T02:40:26.041Z,43456.00
2019-05-10T02:41:26.029Z,42112.00
2019-05-10T02:42:26.018Z,41728.00
2019-05-10T02:43:26.008Z,42784.00
2019-05-10T02:44:26.099Z,42976.00
2019-05-10T02:45:25.988Z,42432.00
2019-05-10T02:46:25.978Z,43680.00
2019-05-10T02:47:25.969Z,43840.00
2019-05-10T02:48:25.960Z,43584.00
2019-05-10T02:49:25.951Z,42336.00
2019-05-10T02:50:25.991Z,39552.00
2019-05-10T02:51:25.949Z,39296.00
2019-05-10T02:52:25.922Z,41312.00
2019-05-10T02:53:25.910Z,42016.00
2019-05-10T02:54:25.904Z,41120.00
2019-05-10T02:55:25.893Z,40032.00
2019-05-10T02:56:31.316Z,39424.00
2019-05-10T02:57:25.872Z,41024.00
2019-05-10T02:58:25.865Z,42176.00
2019-05-10T02:59:25.854Z,40928.00
2019-05-10T03:00:25.842Z,41664.00
2019-05-10T03:01:25.834Z,41952.00
2019-05-10T03:02:25.886Z,42432.00
2019-05-10T03:03:25.817Z,43648.00
2019-05-10T03:04:25.805Z,43392.00
2019-05-10T03:05:25.799Z,42656.00
2019-05-10T03:06:25.787Z,42112.00
2019-05-10T03:07:25.778Z,40736.00
2019-05-10T03:08:25.815Z,40352.00
2019-05-10T03:09:25.755Z,40896.00
2019-05-10T03:10:25.746Z,41728.00
2019-05-10T03:11:25.736Z,41024.00
2019-05-10T03:12:25.740Z,41504.00
2019-05-10T03:13:27.227Z,43136.00
2019-05-10T03:14:25.858Z,43456.00
2019-05-10T03:15:25.699Z,43104.00
2019-05-10T03:16:25.692Z,42048.00
2019-05-10T03:17:25.691Z,41376.00
2019-05-10T03:18:25.669Z,42080.00
2019-05-10T03:19:25.659Z,43008.00
2019-05-10T03:20:25.751Z,41888.00
2019-05-10T03:21:25.644Z,40032.00
2019-05-10T03:22:25.644Z,39712.00
2019-05-10T03:23:25.622Z,38720.00
2019-05-10T03:24:27.890Z,37376.00
2019-05-10T03:25:25.602Z,37728.00
2019-05-10T03:26:25.646Z,38016.00
2019-05-10T03:27:25.584Z,38432.00
2019-05-10T03:28:25.575Z,41312.00
2019-05-10T03:29:25.572Z,39808.00
2019-05-10T03:30:25.554Z,36832.00
2019-05-10T03:31:25.579Z,38816.00
2019-05-10T03:32:25.687Z,41408.00
2019-05-10T03:33:25.526Z,42400.00
2019-05-10T03:34:25.549Z,42048.00
2019-05-10T03:35:25.506Z,38880.00
2019-05-10T03:36:25.533Z,38336.00
2019-05-10T03:37:25.486Z,38592.00
2019-05-10T03:38:25.527Z,39264.00
2019-05-10T03:39:25.469Z,39584.00
2019-05-10T03:40:25.459Z,38816.00
2019-05-10T03:41:25.454Z,39360.00
2019-05-10T03:42:25.441Z,39968.00
2019-05-10T03:43:25.480Z,39200.00
2019-05-10T03:44:25.419Z,38240.00
2019-05-10T03:45:25.410Z,38880.00
2019-05-10T03:46:25.403Z,38976.00
2019-05-10T03:47:25.392Z,37600.00
2019-05-10T03:48:25.382Z,37472.00
2019-05-10T03:49:25.474Z,38656.00
2019-05-10T03:50:25.365Z,39136.00
2019-05-10T03:51:25.352Z,38848.00
2019-05-10T03:52:25.345Z,36704.00
2019-05-10T03:53:25.333Z,33952.00
2019-05-10T03:54:25.322Z,34528.00
2019-05-10T03:55:25.366Z,33952.00
2019-05-10T03:56:25.307Z,32480.00
2019-05-10T03:57:25.296Z,33664.00
2019-05-10T03:58:25.283Z,35552.00
2019-05-10T03:59:25.277Z,34816.00
2019-05-10T04:00:25.276Z,33312.00
2019-05-10T04:01:25.359Z,32288.00
2019-05-10T04:02:25.265Z,32736.00
2019-05-10T04:03:25.244Z,33696.00
2019-05-10T04:04:25.246Z,33632.00
2019-05-10T04:05:25.230Z,34272.00
2019-05-10T04:06:25.383Z,34528.00
2019-05-10T04:07:25.199Z,32960.00
2019-05-10T04:08:25.189Z,33248.00
2019-05-10T04:09:25.177Z,33824.00
2019-05-10T04:10:25.172Z,32416.00
2019-05-10T04:11:25.159Z,31040.00
2019-05-10T04:12:25.251Z,31168.00
2019-05-10T04:13:25.141Z,30816.00
2019-05-10T04:14:25.131Z,30208.00
2019-05-10T04:15:25.121Z,30336.00
2019-05-10T04:16:25.111Z,30080.00
2019-05-10T04:17:25.110Z,28512.00
2019-05-10T04:18:25.140Z,23200.00
2019-05-10T04:19:25.081Z,15988.00
2019-05-10T04:20:25.086Z,11992.00
2019-05-10T04:21:25.065Z,11024.00
2019-05-10T04:22:25.062Z,10732.00
2019-05-10T04:23:25.047Z,10492.00
2019-05-10T04:24:25.285Z,10320.00
2019-05-10T04:25:25.037Z,10188.00
2019-05-10T04:26:25.018Z,10056.00
2019-05-10T04:27:32.529Z,9928.00
2019-05-10T04:28:49.920Z,9764.00
2019-05-10T04:29:49.896Z,9640.00
2019-05-10T04:30:49.787Z,9544.00
2019-05-10T04:31:49.776Z,9444.00
2019-05-10T04:32:49.767Z,9352.00
2019-05-10T04:33:49.756Z,9240.00
2019-05-10T04:34:49.847Z,9140.00
2019-05-10T04:35:49.735Z,9052.00
2019-05-10T04:36:49.726Z,8996.00
2019-05-10T04:37:49.717Z,8908.00
2019-05-10T04:38:49.707Z,8824.00
2019-05-10T04:39:49.700Z,8752.00
2019-05-10T04:40:49.737Z,8692.00
2019-05-10T04:41:49.698Z,8628.00
2019-05-10T04:42:49.668Z,8524.00
2019-05-10T04:43:49.664Z,8476.00
2019-05-10T04:44:53.207Z,8396.00
2019-05-10T04:45:49.647Z,8336.00
2019-05-10T04:46:49.777Z,8280.00
2019-05-10T04:47:49.620Z,8224.00
2019-05-10T04:48:49.616Z,8156.00
2019-05-10T04:49:49.611Z,8100.00
2019-05-10T04:50:49.695Z,8036.00
2019-05-10T04:51:49.590Z,7972.00
2019-05-10T04:52:49.675Z,7904.00
2019-05-10T04:53:49.562Z,7856.00
2019-05-10T04:54:49.550Z,7800.00
2019-05-10T04:55:49.544Z,7752.00
2019-05-10T04:56:49.533Z,7696.00
2019-05-10T04:57:51.197Z,7640.00
2019-05-10T04:58:49.577Z,7576.00
2019-05-10T04:59:49.504Z,7512.00
2019-05-10T05:00:49.500Z,7464.00
2019-05-10T05:01:49.486Z,7424.00
2019-05-10T05:02:49.478Z,7380.00
2019-05-10T05:03:49.466Z,7320.00
2019-05-10T05:04:49.712Z,7272.00
2019-05-10T05:05:49.454Z,7236.00
2019-05-10T05:06:49.435Z,7204.00
2019-05-10T05:07:49.429Z,7160.00
2019-05-10T05:08:49.417Z,7104.00
2019-05-10T05:09:49.405Z,7048.00
2019-05-10T05:10:49.448Z,7012.00
2019-05-10T05:11:49.385Z,6976.00
2019-05-10T05:12:49.373Z,6936.00
2019-05-10T05:13:49.365Z,6896.00
2019-05-10T05:14:49.355Z,6848.00
2019-05-10T05:15:49.341Z,6792.00
2019-05-10T05:16:49.384Z,6752.00
2019-05-10T05:17:49.323Z,6716.00
2019-05-10T05:18:49.450Z,6672.00
2019-05-10T05:19:49.322Z,6648.00
2019-05-10T05:20:49.291Z,6604.00
2019-05-10T05:21:49.430Z,6564.00
2019-05-10T05:22:49.270Z,6516.00
2019-05-10T05:23:49.266Z,6488.00
2019-05-10T05:24:49.249Z,6460.00
2019-05-10T05:25:49.241Z,6428.00
2019-05-10T05:26:49.279Z,6384.00
2019-05-10T05:28:05.371Z,6364.00
2019-05-10T05:28:50.301Z,6324.00
2019-05-10T05:29:49.199Z,6288.00
2019-05-10T05:30:49.192Z,6264.00
2019-05-10T05:31:54.121Z,6232.00
2019-05-10T05:33:14.026Z,6200.00
2019-05-10T05:34:14.019Z,6180.00
2019-05-10T05:35:15.518Z,6152.00
2019-05-10T05:36:13.996Z,6112.00
2019-05-10T05:37:13.986Z,6048.00
2019-05-10T05:38:14.127Z,5880.00
2019-05-10T05:39:13.978Z,5596.00
2019-05-10T05:40:13.962Z,5420.00
2019-05-10T05:41:13.945Z,5384.00
2019-05-10T05:42:13.936Z,5376.00
2019-05-10T05:43:13.925Z,5360.00
2019-05-10T05:44:13.966Z,5344.00
2019-05-10T05:45:13.905Z,5328.00
2019-05-10T05:46:14.581Z,5320.00
2019-05-10T05:47:13.884Z,5312.00
2019-05-10T05:48:15.967Z,5304.00
2019-05-10T05:49:38.724Z,5280.00
2019-05-10T05:50:38.716Z,5260.00
2019-05-10T05:51:38.700Z,5252.00
2019-05-10T05:52:38.693Z,5232.00
2019-05-10T05:53:42.417Z,5220.00
2019-05-10T05:54:38.822Z,5212.00
2019-05-10T05:55:38.663Z,5216.00
2019-05-10T05:56:38.654Z,5216.00
2019-05-10T05:57:38.644Z,5220.00
2019-05-10T05:58:44.797Z,5232.00
2019-05-10T05:59:39.768Z,5232.00
2019-05-10T06:00:44.713Z,5236.00
2019-05-10T06:01:39.700Z,5228.00
2019-05-10T06:02:44.346Z,5228.00
2019-05-10T06:04:06.468Z,5224.00
2019-05-10T06:05:03.434Z,5216.00
2019-05-10T06:06:15.583Z,5224.00
2019-05-10T06:07:04.462Z,5224.00
2019-05-10T06:08:03.561Z,5236.00
2019-05-10T06:09:03.344Z,5236.00
2019-05-10T06:10:03.588Z,5228.00
2019-05-10T06:11:03.324Z,5228.00
2019-05-10T06:12:07.324Z,5216.00
2019-05-10T06:13:30.215Z,5208.00
2019-05-10T06:14:28.104Z,5192.00
2019-05-10T06:15:28.945Z,5188.00
2019-05-10T06:16:28.083Z,5184.00
2019-05-10T06:17:29.362Z,5188.00
2019-05-10T06:18:28.062Z,5184.00
2019-05-10T06:19:29.619Z,5176.00
2019-05-10T06:20:28.057Z,5172.00
2019-05-10T06:21:28.106Z,5168.00
2019-05-10T06:22:28.022Z,5168.00
2019-05-10T06:23:29.325Z,5164.00
2019-05-10T06:24:54.018Z,5172.00
2019-05-10T06:25:52.806Z,5180.00
2019-05-10T06:26:52.949Z,5176.00
2019-05-10T06:27:52.784Z,5184.00
2019-05-10T06:28:59.418Z,5196.00
2019-05-10T06:29:53.859Z,5208.00
2019-05-10T06:30:52.756Z,5216.00
2019-05-10T06:31:52.794Z,5232.00
2019-05-10T06:32:59.511Z,5232.00
2019-05-10T06:34:17.531Z,5244.00
2019-05-10T06:35:19.453Z,5256.00
2019-05-10T06:36:17.594Z,5264.00
2019-05-10T06:37:17.598Z,5272.00
2019-05-10T06:38:17.491Z,5288.00
2019-05-10T06:39:17.480Z,5304.00
2019-05-10T06:40:17.480Z,5308.00
2019-05-10T06:41:19.269Z,5304.00
2019-05-10T06:42:17.451Z,5308.00
2019-05-10T06:43:17.485Z,5300.00
2019-05-10T06:44:17.426Z,5304.00
2019-05-10T06:45:17.417Z,5312.00
2019-05-10T06:46:17.408Z,5316.00
2019-05-10T06:47:17.394Z,5332.00
2019-05-10T06:48:26.330Z,5348.00
2019-05-10T06:49:50.737Z,5364.00
2019-05-10T06:51:09.613Z,5368.00
2019-05-10T06:52:07.120Z,5368.00
2019-05-10T06:53:10.534Z,5368.00
2019-05-10T06:54:07.099Z,5376.00
2019-05-10T06:55:07.140Z,5380.00
2019-05-10T06:56:07.093Z,5392.00
2019-05-10T06:57:11.185Z,5400.00
2019-05-10T06:58:36.318Z,5408.00
2019-05-10T07:00:05.737Z,5416.00
2019-05-10T07:01:21.519Z,5412.00
2019-05-10T07:02:26.175Z,5416.00
2019-05-10T07:03:46.310Z,5412.00
2019-05-10T07:04:46.299Z,5420.00
2019-05-10T07:05:46.289Z,5428.00
2019-05-10T07:06:46.379Z,5448.00
2019-05-10T07:07:46.267Z,5456.00
2019-05-10T07:08:51.953Z,5452.00
2019-05-10T07:10:18.780Z,5460.00
2019-05-10T07:11:35.863Z,5464.00
2019-05-10T07:12:36.011Z,5460.00
2019-05-10T07:13:40.529Z,5456.00
2019-05-10T07:15:03.680Z,5464.00
2019-05-10T07:16:00.629Z,5472.00
2019-05-10T07:17:02.778Z,5500.00
2019-05-10T07:18:00.707Z,5532.00
2019-05-10T07:19:02.157Z,5568.00
2019-05-10T07:20:00.584Z,5620.00
2019-05-10T07:21:06.145Z,5668.00
2019-05-10T07:22:01.666Z,5724.00
2019-05-10T07:23:05.975Z,5772.00
2019-05-10T07:24:01.694Z,5816.00
2019-05-10T07:25:04.275Z,5864.00
2019-05-10T07:26:00.525Z,5912.00
2019-05-10T07:27:02.091Z,5960.00
2019-05-10T07:28:00.521Z,6012.00
2019-05-10T07:29:00.493Z,6068.00
2019-05-10T07:30:00.533Z,6128.00
2019-05-10T07:31:00.473Z,6200.00
2019-05-10T07:32:00.462Z,6276.00
2019-05-10T07:33:02.114Z,6356.00
2019-05-10T07:34:00.441Z,6448.00
2019-05-10T07:35:01.140Z,6540.00
2019-05-10T07:36:00.432Z,6620.00
2019-05-10T07:37:01.930Z,6692.00
2019-05-10T07:38:00.399Z,6748.00
2019-05-10T07:39:02.839Z,6796.00
2019-05-10T07:40:25.239Z,6840.00
2019-05-10T07:41:27.288Z,6800.00
2019-05-10T07:42:25.214Z,6728.00
2019-05-10T07:43:28.598Z,6772.00
2019-05-10T07:44:25.194Z,6820.00
2019-05-10T07:45:25.771Z,6796.00
2019-05-10T07:46:25.175Z,6784.00
2019-05-10T07:47:30.465Z,6652.00
2019-05-10T07:48:53.311Z,6556.00
2019-05-10T07:49:49.954Z,6572.00
2019-05-10T07:50:51.989Z,6592.00
2019-05-10T07:51:49.934Z,6632.00
2019-05-10T07:52:49.924Z,6652.00
2019-05-10T07:53:49.914Z,6672.00
2019-05-10T07:54:49.904Z,6700.00
2019-05-10T07:55:49.894Z,6728.00
2019-05-10T07:56:49.935Z,6788.00
2019-05-10T07:57:49.872Z,6840.00
2019-05-10T07:58:49.867Z,6876.00
2019-05-10T07:59:51.284Z,6900.00
2019-05-10T08:00:49.839Z,6944.00
2019-05-10T08:01:49.839Z,6992.00
2019-05-10T08:02:57.732Z,7060.00
2019-05-10T08:04:21.972Z,7184.00
2019-05-10T08:05:39.421Z,7332.00
2019-05-10T08:06:44.068Z,7432.00
2019-05-10T08:08:04.361Z,7548.00
2019-05-10T08:09:07.115Z,7572.00
2019-05-10T08:10:04.912Z,7596.00
2019-05-10T08:11:04.386Z,7676.00
2019-05-10T08:12:05.284Z,7776.00
2019-05-10T08:13:04.162Z,7836.00
2019-05-10T08:14:06.542Z,7844.00
2019-05-10T08:15:05.237Z,7852.00
2019-05-10T08:16:05.388Z,7860.00
2019-05-10T08:17:06.203Z,7868.00
2019-05-10T08:18:04.114Z,7888.00
2019-05-10T08:19:04.100Z,7912.00
2019-05-10T08:20:08.894Z,7976.00
2019-05-10T08:21:28.888Z,8080.00
2019-05-10T08:22:32.775Z,8172.00
2019-05-10T08:23:54.048Z,8316.00
2019-05-10T08:24:56.338Z,8408.00
2019-05-10T08:25:53.812Z,8496.00
2019-05-10T08:26:57.183Z,8524.00
2019-05-10T08:27:55.421Z,8520.00
2019-05-10T08:28:53.627Z,8540.00
2019-05-10T08:30:17.906Z,8516.00
2019-05-10T08:31:18.513Z,8464.00
2019-05-10T08:32:19.321Z,8396.00
2019-05-10T08:33:18.502Z,8376.00
2019-05-10T08:34:18.483Z,8432.00
2019-05-10T08:35:18.907Z,8480.00
2019-05-10T08:36:18.564Z,8464.00
2019-05-10T08:37:30.443Z,8444.00
2019-05-10T08:38:47.148Z,8436.00
2019-05-10T08:40:08.050Z,8452.00
2019-05-10T08:41:13.209Z,8476.00
2019-05-10T08:42:30.434Z,8504.00
2019-05-10T08:43:38.994Z,8524.00
2019-05-10T08:45:03.636Z,8536.00
2019-05-10T08:46:28.658Z,8584.00
2019-05-10T08:47:47.278Z,8620.00
2019-05-10T08:48:51.378Z,8648.00
2019-05-10T08:50:08.132Z,8688.00
2019-05-10T08:51:12.505Z,8732.00
2019-05-10T08:52:12.290Z,8720.00
2019-05-10T08:53:16.272Z,8720.00
2019-05-10T08:54:12.193Z,8712.00
2019-05-10T08:55:12.561Z,8696.00
2019-05-10T08:56:13.866Z,8696.00
2019-05-10T08:57:43.301Z,8700.00
2019-05-10T08:59:03.875Z,8696.00
2019-05-10T09:00:07.169Z,8656.00
2019-05-10T09:01:30.396Z,8624.00
2019-05-10T09:02:52.042Z,8612.00
2019-05-10T09:03:55.059Z,8620.00
2019-05-10T09:05:22.609Z,8624.00
2019-05-10T09:06:42.061Z,8640.00
2019-05-10T09:07:42.927Z,8648.00
2019-05-10T09:08:42.975Z,8660.00
2019-05-10T09:09:49.444Z,8668.00
2019-05-10T09:10:42.286Z,8684.00
2019-05-10T09:11:43.942Z,8688.00
2019-05-10T09:12:50.290Z,8700.00
2019-05-10T09:14:05.673Z,8716.00
2019-05-10T09:15:10.025Z,8724.00
2019-05-10T09:16:39.485Z,8740.00
2019-05-10T09:17:32.457Z,8740.00
2019-05-10T09:18:30.440Z,8748.00
2019-05-10T09:19:39.249Z,8756.00
2019-05-10T09:21:00.425Z,8776.00
2019-05-10T09:22:24.043Z,8784.00
2019-05-10T09:23:44.885Z,8796.00
2019-05-10T09:24:48.595Z,8792.00
2019-05-10T09:25:44.915Z,8784.00
2019-05-10T09:26:46.919Z,8768.00
2019-05-10T09:28:16.474Z,8752.00
2019-05-10T09:29:12.094Z,8740.00
2019-05-10T09:30:14.204Z,8724.00
2019-05-10T09:31:34.586Z,8704.00
2019-05-10T09:32:34.583Z,8684.00
2019-05-10T09:33:34.564Z,8648.00
2019-05-10T09:34:34.554Z,8628.00
2019-05-10T09:35:38.876Z,8616.00
2019-05-10T09:36:59.595Z,8588.00
2019-05-10T09:37:59.385Z,8564.00
2019-05-10T09:38:59.374Z,8552.00
2019-05-10T09:40:08.112Z,8540.00
2019-05-10T09:41:27.567Z,8520.00
2019-05-10T09:42:49.311Z,8492.00
2019-05-10T09:43:50.607Z,8480.00
2019-05-10T09:44:49.291Z,8468.00
2019-05-10T09:45:49.280Z,8452.00
2019-05-10T09:46:49.267Z,8428.00
2019-05-10T09:47:49.307Z,8416.00
2019-05-10T09:48:54.639Z,8404.00
2019-05-10T09:50:14.056Z,8384.00
2019-05-10T09:51:18.943Z,8372.00
2019-05-10T09:52:38.834Z,8356.00
2019-05-10T09:53:38.878Z,8336.00
2019-05-10T09:54:38.814Z,8324.00
2019-05-10T09:55:38.806Z,8308.00
2019-05-10T09:56:44.220Z,8288.00
2019-05-10T09:57:38.783Z,8268.00
2019-05-10T09:58:38.871Z,8244.00
2019-05-10T09:59:38.912Z,8212.00
2019-05-10T10:00:38.752Z,8184.00
2019-05-10T10:01:38.742Z,8156.00
2019-05-10T10:02:40.550Z,8132.00
2019-05-10T10:03:43.088Z,8120.00
2019-05-10T10:04:39.860Z,8112.00
2019-05-10T10:05:40.286Z,8108.00
2019-05-10T10:06:41.806Z,8096.00
2019-05-10T10:07:39.777Z,8088.00
2019-05-10T10:08:43.526Z,8080.00
2019-05-10T10:10:03.519Z,8080.00
2019-05-10T10:11:13.485Z,8064.00
2019-05-10T10:12:28.973Z,8056.00
2019-05-10T10:13:39.576Z,8052.00
2019-05-10T10:14:53.045Z,8032.00
2019-05-10T10:15:53.183Z,8020.00
2019-05-10T10:16:58.354Z,7992.00
2019-05-10T10:18:21.444Z,7932.00
2019-05-10T10:19:42.633Z,7852.00
2019-05-10T10:20:44.998Z,7784.00
2019-05-10T10:21:42.699Z,7712.00
2019-05-10T10:22:43.331Z,7648.00
2019-05-10T10:23:42.578Z,7580.00
2019-05-10T10:24:42.567Z,7512.00
2019-05-10T10:25:42.564Z,7440.00
2019-05-10T10:26:42.546Z,7372.00
2019-05-10T10:27:42.589Z,7316.00
2019-05-10T10:28:42.531Z,7256.00
2019-05-10T10:29:42.512Z,7196.00
2019-05-10T10:30:42.504Z,7140.00
2019-05-10T10:31:51.476Z,7092.00
2019-05-10T10:33:11.392Z,7012.00
2019-05-10T10:34:32.677Z,6908.00
2019-05-10T10:35:32.230Z,6832.00
2019-05-10T10:36:32.230Z,6756.00
2019-05-10T10:37:32.209Z,6680.00
2019-05-10T10:38:37.088Z,6604.00
2019-05-10T10:40:00.699Z,6516.00
2019-05-10T10:41:26.162Z,6436.00
2019-05-10T10:42:47.367Z,6332.00
2019-05-10T10:43:48.419Z,6244.00
2019-05-10T10:44:48.295Z,6144.00
2019-05-10T10:45:46.562Z,6032.00
2019-05-10T10:46:47.973Z,5912.00
2019-05-10T10:47:47.159Z,5800.00
2019-05-10T10:48:49.040Z,5684.00
2019-05-10T10:49:46.521Z,5580.00
2019-05-10T10:50:53.835Z,5472.00
2019-05-10T10:52:13.467Z,5352.00
2019-05-10T10:53:11.296Z,5292.00
2019-05-10T10:54:11.390Z,5240.00
2019-05-10T10:55:13.302Z,5204.00
2019-05-10T10:56:11.269Z,5164.00
2019-05-10T10:57:11.256Z,5096.00
2019-05-10T10:58:11.245Z,5024.00
2019-05-10T10:59:11.236Z,4968.00
2019-05-10T11:00:11.278Z,4916.00
2019-05-10T11:01:21.375Z,4876.00
2019-05-10T11:02:36.010Z,4832.00
2019-05-10T11:03:36.001Z,4824.00
2019-05-10T11:04:40.613Z,4800.00
2019-05-10T11:06:00.839Z,4736.00
2019-05-10T11:07:09.835Z,4676.00
2019-05-10T11:08:25.627Z,4604.00
2019-05-10T11:09:25.616Z,4548.00
2019-05-10T11:10:25.606Z,4504.00
2019-05-10T11:11:30.719Z,4448.00
2019-05-10T11:12:51.243Z,4376.00
2019-05-10T11:13:58.163Z,4320.00
2019-05-10T11:14:51.468Z,4276.00
2019-05-10T11:15:51.666Z,4216.00
2019-05-10T11:16:52.967Z,4164.00
2019-05-10T11:17:50.667Z,4104.00
2019-05-10T11:18:51.956Z,4048.00
2019-05-10T11:19:50.325Z,3992.00
2019-05-10T11:20:53.865Z,3932.00
2019-05-10T11:21:51.439Z,3884.00
2019-05-10T11:22:53.388Z,3844.00
2019-05-10T11:23:50.280Z,3792.00
2019-05-10T11:24:51.732Z,3728.00
2019-05-10T11:26:15.068Z,3668.00
2019-05-10T11:27:17.193Z,3644.00
2019-05-10T11:28:15.197Z,3636.00
2019-05-10T11:29:23.067Z,3628.00
2019-05-10T11:30:39.839Z,3608.00
2019-05-10T11:31:41.435Z,3588.00
2019-05-10T11:32:41.811Z,3568.00
2019-05-10T11:33:41.436Z,3544.00
2019-05-10T11:34:39.794Z,3520.00
2019-05-10T11:35:41.695Z,3488.00
2019-05-10T11:36:40.529Z,3468.00
2019-05-10T11:37:42.080Z,3436.00
2019-05-10T11:38:41.965Z,3424.00
2019-05-10T11:39:45.502Z,3416.00
2019-05-10T11:41:07.154Z,3396.00
2019-05-10T11:42:30.974Z,3380.00
2019-05-10T11:43:31.295Z,3380.00
2019-05-10T11:44:31.525Z,3376.00
2019-05-10T11:45:32.276Z,3368.00
2019-05-10T11:46:31.040Z,3348.00
2019-05-10T11:47:31.242Z,3320.00
2019-05-10T11:48:36.771Z,3288.00
2019-05-10T11:49:54.228Z,3252.00
2019-05-10T11:50:54.220Z,3236.00
2019-05-10T11:51:58.529Z,3220.00
2019-05-10T11:52:54.195Z,3208.00
2019-05-10T11:53:59.392Z,3208.00
2019-05-10T11:54:54.228Z,3208.00
2019-05-10T11:55:54.167Z,3212.00
2019-05-10T11:56:58.555Z,3204.00
2019-05-10T11:58:18.958Z,3200.00
2019-05-10T11:59:21.635Z,3188.00
2019-05-10T12:00:25.640Z,3188.00
2019-05-10T12:01:43.736Z,3188.00
2019-05-10T12:03:03.181Z,3180.00
2019-05-10T12:04:13.035Z,3164.00
2019-05-10T12:05:33.476Z,3148.00
2019-05-10T12:06:33.315Z,3136.00
2019-05-10T12:07:40.341Z,3128.00
2019-05-10T12:09:02.169Z,3104.00
2019-05-10T12:10:25.732Z,3080.00
2019-05-10T12:11:32.461Z,3072.00
2019-05-10T12:13:05.703Z,3068.00
2019-05-10T12:14:13.783Z,3068.00
2019-05-10T12:16:16.853Z,3084.00
2019-05-10T12:17:14.299Z,3092.00
2019-05-10T12:18:14.917Z,3100.00
2019-05-10T12:19:19.838Z,3096.00
2019-05-10T12:20:52.173Z,3084.00
2019-05-10T12:22:04.692Z,3068.00
2019-05-10T12:23:03.190Z,3048.00
2019-05-10T12:24:10.588Z,3028.00
2019-05-10T12:25:27.408Z,3008.00
2019-05-10T12:26:06.530Z,3072.00
2019-05-10T12:27:13.278Z,2996.00
2019-05-10T12:27:18.899Z,3004.00
2019-05-10T12:28:03.130Z,3024.00
2019-05-10T12:29:11.562Z,3040.00
2019-05-10T12:30:29.494Z,3064.00
2019-05-10T12:31:55.155Z,3076.00
2019-05-10T12:32:56.623Z,3084.00
2019-05-10T12:33:52.896Z,3088.00
2019-05-10T12:34:56.299Z,3076.00
2019-05-10T12:35:51.532Z,3080.00
2019-05-10T12:36:52.065Z,3092.00
2019-05-10T12:37:54.167Z,3116.00
2019-05-10T12:38:51.499Z,3132.00
2019-05-10T12:39:53.170Z,3136.00
2019-05-10T12:40:51.531Z,3140.00
2019-05-10T12:41:53.025Z,3140.00
2019-05-10T12:42:51.462Z,3136.00
2019-05-10T12:43:51.813Z,3140.00
2019-05-10T12:44:52.034Z,3136.00
2019-05-10T12:45:51.920Z,3132.00
2019-05-10T12:46:54.289Z,3132.00
2019-05-10T12:47:51.982Z,3116.00
2019-05-10T12:48:51.761Z,3116.00
2019-05-10T12:49:54.014Z,3112.00